Time;durP1;ratioP1;P1;durP2;ratioP2;P2;SDS_P1;SDS_P2;PMS_P1;PMS_P2;Temp;Humidity;BMP_temperature;BMP_pressure;BME280_temperature;BME280_humidity;BME280_pressure;Samples;Min_cycle;Max_cycle;Signal;HPM_P1;HPM_P2
2022/04/25 00:02:19;;;;;;;11.97;7.70;;;;;;;;;;4988907;28;20235;-75
2022/04/25 00:04:45;;;;;;;12.40;7.63;;;;;;;;;;4994926;28;20212;-76
2022/04/25 00:07:16;;;;;;;9.97;7.10;;;;;;;;;;4989039;28;20224;-75
2022/04/25 00:09:41;;;;;;;11.63;7.63;;;;;;;;;;4987785;28;20243;-75
2022/04/25 00:12:09;;;;;;;9.47;7.60;;;;;;;;;;4979260;28;20217;-77
2022/04/25 00:14:37;;;;;;;9.73;7.80;;;;;;;;;;4997792;28;20579;-75
2022/04/25 00:17:07;;;;;;;11.37;7.37;;;;;;;;;;4989775;28;20229;-76
2022/04/25 00:19:35;;;;;;;12.33;7.20;;;;;;;;;;4998439;28;20263;-74
2022/04/25 00:22:01;;;;;;;11.50;7.60;;;;;;;;;;4992211;28;20248;-74
2022/04/25 00:24:27;;;;;;;12.17;7.57;;;;;;;;;;4980153;28;20231;-76
2022/04/25 00:26:54;;;;;;;10.47;7.53;;;;;;;;;;5009857;28;20315;-75
2022/04/25 00:29:20;;;;;;;8.67;7.17;;;;;;;;;;5005864;28;20223;-74
2022/04/25 00:31:53;;;;;;;11.00;7.50;;;;;;;;;;4988724;28;20304;-75
2022/04/25 00:34:23;;;;;;;9.70;7.17;;;;;;;;;;5006865;28;20685;-75
2022/04/25 00:36:51;;;;;;;11.73;7.53;;;;;;;;;;5001432;28;20646;-75
2022/04/25 00:39:16;;;;;;;10.40;7.03;;;;;;;;;;5010213;28;20320;-75
2022/04/25 00:41:42;;;;;;;8.53;6.97;;;;;;;;;;4987294;28;20235;-75
2022/04/25 00:44:07;;;;;;;11.33;6.80;;;;;;;;;;4978280;28;20216;-75
2022/04/25 00:46:37;;;;;;;9.70;6.93;;;;;;;;;;5027332;28;20229;-75
2022/04/25 00:49:05;;;;;;;10.53;7.20;;;;;;;;;;4989184;28;20217;-76
2022/04/25 00:51:31;;;;;;;9.60;7.60;;;;;;;;;;5009473;28;20260;-74
2022/04/25 00:53:59;;;;;;;9.73;7.27;;;;;;;;;;5025120;28;20247;-76
2022/04/25 00:56:24;;;;;;;12.13;7.67;;;;;;;;;;5008221;28;20675;-75
2022/04/25 00:58:50;;;;;;;9.87;7.37;;;;;;;;;;4989760;28;20720;-75
2022/04/25 01:01:18;;;;;;;10.07;7.10;;;;;;;;;;4997425;28;20232;-74
2022/04/25 01:03:48;;;;;;;9.80;7.23;;;;;;;;;;4981419;28;20264;-75
2022/04/25 01:06:18;;;;;;;10.80;7.60;;;;;;;;;;4981860;28;20272;-74
2022/04/25 01:08:44;;;;;;;10.30;6.97;;;;;;;;;;4976278;28;20641;-76
2022/04/25 01:11:10;;;;;;;8.50;7.13;;;;;;;;;;4979721;28;20710;-76
2022/04/25 01:13:35;;;;;;;11.23;7.30;;;;;;;;;;4995710;28;20246;-76
2022/04/25 01:16:03;;;;;;;9.50;7.33;;;;;;;;;;4998701;28;20316;-76
2022/04/25 01:18:29;;;;;;;11.40;7.63;;;;;;;;;;4994976;28;20236;-75
2022/04/25 01:20:56;;;;;;;11.10;7.43;;;;;;;;;;5013254;28;20311;-75
2022/04/25 01:28:51;;;;;;;9.10;7.00;;;;;;;;;;4998158;28;20274;-75
2022/04/25 01:31:16;;;;;;;11.17;6.80;;;;;;;;;;4997037;28;20779;-76
2022/04/25 01:33:44;;;;;;;10.53;7.33;;;;;;;;;;5008759;28;20225;-75
2022/04/25 01:36:10;;;;;;;7.90;7.03;;;;;;;;;;5003619;28;20248;-76
2022/04/25 01:38:46;;;;;;;10.37;7.20;;;;;;;;;;5012162;28;20225;-76
2022/04/25 01:41:13;;;;;;;10.27;6.50;;;;;;;;;;4978696;28;20225;-76
2022/04/25 01:43:39;;;;;;;9.87;6.47;;;;;;;;;;4991936;28;20313;-76
2022/04/25 01:46:06;;;;;;;9.27;6.57;;;;;;;;;;5011413;28;20693;-76
2022/04/25 01:48:32;;;;;;;8.93;6.30;;;;;;;;;;4995094;28;20236;-76
2022/04/25 01:50:57;;;;;;;10.10;6.50;;;;;;;;;;5011436;28;20216;-76
2022/04/25 01:53:25;;;;;;;8.63;6.27;;;;;;;;;;4977657;28;20601;-76
2022/04/25 01:55:52;;;;;;;8.93;6.17;;;;;;;;;;4992911;28;20213;-76
2022/04/25 01:58:19;;;;;;;8.43;6.50;;;;;;;;;;5007279;28;20282;-76
2022/04/25 02:00:47;;;;;;;9.43;6.70;;;;;;;;;;4985919;28;20276;-75
2022/04/25 02:03:13;;;;;;;12.63;7.33;;;;;;;;;;4991133;28;20233;-75
2022/04/25 02:05:38;;;;;;;10.10;7.40;;;;;;;;;;4987951;28;20224;-75
2022/04/25 02:08:04;;;;;;;9.70;7.30;;;;;;;;;;5012677;28;20274;-76
2022/04/25 02:10:32;;;;;;;13.03;8.20;;;;;;;;;;4994695;28;20235;-76
2022/04/25 02:12:57;;;;;;;12.33;8.00;;;;;;;;;;4994262;28;20726;-76
2022/04/25 02:15:25;;;;;;;14.40;8.77;;;;;;;;;;5010971;28;20224;-76
2022/04/25 02:17:53;;;;;;;12.60;8.87;;;;;;;;;;4989272;28;20287;-76
2022/04/25 02:20:21;;;;;;;15.00;9.37;;;;;;;;;;4991756;28;20298;-76
2022/04/25 02:22:49;;;;;;;12.73;8.77;;;;;;;;;;4993252;28;20637;-76
2022/04/25 02:25:16;;;;;;;12.53;8.80;;;;;;;;;;4991100;28;20295;-76
2022/04/25 02:27:42;;;;;;;15.93;9.03;;;;;;;;;;4994328;28;20217;-75
2022/04/25 02:30:10;;;;;;;12.17;9.43;;;;;;;;;;5007093;28;20223;-75
2022/04/25 02:32:36;;;;;;;12.30;9.63;;;;;;;;;;5010502;28;20256;-75
2022/04/25 02:35:04;;;;;;;14.40;10.00;;;;;;;;;;4989287;28;20229;-75
2022/04/25 02:37:32;;;;;;;15.87;9.93;;;;;;;;;;5010885;28;20217;-75
2022/04/25 02:39:57;;;;;;;12.77;9.23;;;;;;;;;;5010085;28;20235;-77
2022/04/25 02:42:25;;;;;;;15.07;10.07;;;;;;;;;;4991626;28;20300;-76
2022/04/25 02:44:53;;;;;;;14.13;9.97;;;;;;;;;;4998112;28;20579;-76
2022/04/25 02:47:23;;;;;;;13.23;9.33;;;;;;;;;;4995882;28;20212;-75
2022/04/25 02:49:50;;;;;;;11.20;8.23;;;;;;;;;;5023207;28;20259;-77
2022/04/25 02:52:19;;;;;;;10.00;8.33;;;;;;;;;;4993740;28;20929;-75
2022/04/25 02:54:47;;;;;;;9.77;7.70;;;;;;;;;;4991209;28;20225;-74
2022/04/25 02:57:12;;;;;;;8.53;7.40;;;;;;;;;;5012879;28;20223;-76
2022/04/25 02:59:40;;;;;;;12.27;7.27;;;;;;;;;;4977363;28;20307;-76
2022/04/25 03:02:05;;;;;;;10.13;7.83;;;;;;;;;;4993164;28;20311;-74
2022/04/25 03:04:31;;;;;;;9.13;7.40;;;;;;;;;;4977474;28;20315;-76
2022/04/25 03:06:58;;;;;;;9.60;7.13;;;;;;;;;;4977795;28;20300;-75
2022/04/25 03:09:27;;;;;;;9.87;7.77;;;;;;;;;;4994667;28;20586;-75
2022/04/25 03:11:53;;;;;;;11.23;7.60;;;;;;;;;;4980275;28;20220;-75
2022/04/25 03:14:18;;;;;;;11.13;7.53;;;;;;;;;;4994009;28;20212;-75
2022/04/25 03:16:44;;;;;;;11.30;8.20;;;;;;;;;;5008733;28;20312;-74
2022/04/25 03:19:09;;;;;;;10.37;8.13;;;;;;;;;;5009757;28;20232;-76
2022/04/25 03:21:37;;;;;;;11.40;8.00;;;;;;;;;;4992956;28;20311;-76
2022/04/25 03:24:03;;;;;;;13.67;8.80;;;;;;;;;;4998739;28;20232;-74
2022/04/25 03:26:29;;;;;;;13.83;8.13;;;;;;;;;;4995810;28;20236;-75
2022/04/25 03:28:54;;;;;;;12.70;8.17;;;;;;;;;;4977701;28;20255;-75
2022/04/25 03:31:20;;;;;;;16.63;8.70;;;;;;;;;;4991379;28;20240;-75
2022/04/25 03:33:48;;;;;;;12.33;8.60;;;;;;;;;;4997674;28;20252;-75
2022/04/25 03:36:15;;;;;;;17.37;7.83;;;;;;;;;;4977425;28;20316;-75
2022/04/25 03:38:43;;;;;;;12.70;7.97;;;;;;;;;;5012199;28;20248;-75
2022/04/25 03:41:09;;;;;;;12.83;8.13;;;;;;;;;;4989444;28;20315;-75
2022/04/25 03:43:39;;;;;;;16.60;8.57;;;;;;;;;;5022763;28;20271;-74
2022/04/25 03:46:05;;;;;;;14.27;8.80;;;;;;;;;;4991913;28;20642;-74
2022/04/25 03:48:33;;;;;;;10.67;8.07;;;;;;;;;;4977076;28;20312;-74
2022/04/25 03:50:58;;;;;;;10.53;7.77;;;;;;;;;;4976196;28;20252;-75
2022/04/25 03:53:24;;;;;;;12.27;8.73;;;;;;;;;;4990984;28;20336;-74
2022/04/25 03:58:38;;;;;;;12.57;8.90;;;;;;;;;;5009039;28;20787;-74
2022/04/25 04:01:04;;;;;;;14.50;8.53;;;;;;;;;;4989648;28;20954;-74
2022/04/25 04:03:30;;;;;;;12.40;8.30;;;;;;;;;;4991951;28;20370;-75
2022/04/25 04:05:56;;;;;;;12.73;8.70;;;;;;;;;;4992190;28;20231;-75
2022/04/25 04:08:22;;;;;;;16.33;9.17;;;;;;;;;;4993809;28;20212;-76
2022/04/25 04:10:47;;;;;;;13.10;8.40;;;;;;;;;;4992120;28;20239;-76
2022/04/25 04:13:13;;;;;;;16.43;8.70;;;;;;;;;;5010700;28;20227;-75
2022/04/25 04:15:40;;;;;;;11.90;8.47;;;;;;;;;;4994439;28;20225;-75
2022/04/25 04:18:06;;;;;;;12.53;8.80;;;;;;;;;;4993133;28;20212;-75
2022/04/25 04:20:32;;;;;;;14.53;8.50;;;;;;;;;;5006183;28;20228;-75
2022/04/25 04:22:58;;;;;;;13.80;8.80;;;;;;;;;;5024921;28;20221;-75
2022/04/25 04:25:23;;;;;;;12.40;8.43;;;;;;;;;;5008636;28;20216;-75
2022/04/25 04:27:49;;;;;;;9.90;7.40;;;;;;;;;;4992960;28;20225;-76
2022/04/25 04:30:18;;;;;;;12.83;8.50;;;;;;;;;;5020620;28;22079;-75
2022/04/25 04:32:47;;;;;;;14.27;8.23;;;;;;;;;;4983628;28;20718;-74
2022/04/25 04:35:15;;;;;;;12.23;7.63;;;;;;;;;;4977638;28;20259;-75
2022/04/25 04:37:41;;;;;;;10.57;7.53;;;;;;;;;;5008786;28;20232;-75
2022/04/25 04:40:29;;;;;;;10.13;7.63;;;;;;;;;;4974412;28;20320;-75
2022/04/25 04:42:57;;;;;;;14.40;7.77;;;;;;;;;;5005943;28;20753;-74
2022/04/25 04:45:25;;;;;;;11.97;8.30;;;;;;;;;;4990475;28;20239;-74
2022/04/25 04:47:54;;;;;;;11.60;7.97;;;;;;;;;;4980772;28;20228;-78
2022/04/25 04:50:20;;;;;;;10.40;7.13;;;;;;;;;;5014859;28;20235;-74
2022/04/25 04:52:50;;;;;;;10.20;7.70;;;;;;;;;;4994027;28;20220;-74
2022/04/25 04:55:15;;;;;;;9.53;7.33;;;;;;;;;;4985355;28;20264;-75
2022/04/25 04:57:43;;;;;;;9.27;7.30;;;;;;;;;;4988818;28;20225;-76
2022/04/25 05:00:13;;;;;;;13.27;7.70;;;;;;;;;;5002606;28;20232;-76
2022/04/25 05:02:43;;;;;;;14.03;7.97;;;;;;;;;;5013960;28;20227;-76
2022/04/25 05:05:12;;;;;;;12.43;7.07;;;;;;;;;;5001816;28;20221;-75
2022/04/25 05:07:38;;;;;;;10.80;7.70;;;;;;;;;;5012539;28;20217;-75
2022/04/25 05:10:06;;;;;;;12.93;7.33;;;;;;;;;;5009972;28;20229;-79
2022/04/25 05:12:54;;;;;;;10.93;7.50;;;;;;;;;;5012330;28;20313;-76
2022/04/25 05:15:23;;;;;;;12.30;7.67;;;;;;;;;;5009222;28;20654;-77
2022/04/25 05:17:49;;;;;;;16.63;7.80;;;;;;;;;;4996837;28;20234;-76
2022/04/25 05:20:15;;;;;;;13.13;7.03;;;;;;;;;;5035754;28;20642;-75
2022/04/25 05:22:44;;;;;;;13.80;7.80;;;;;;;;;;4994330;28;20224;-75
2022/04/25 05:25:14;;;;;;;10.00;7.20;;;;;;;;;;4994527;28;20717;-74
2022/04/25 05:27:43;;;;;;;10.90;7.13;;;;;;;;;;5009578;28;20247;-74
2022/04/25 05:30:09;;;;;;;8.50;6.80;;;;;;;;;;5028955;28;20287;-75
2022/04/25 05:32:54;;;;;;;10.00;6.93;;;;;;;;;;5011637;28;20233;-74
2022/04/25 05:35:29;;;;;;;9.70;6.83;;;;;;;;;;5008680;28;20225;-74
2022/04/25 05:37:55;;;;;;;9.43;6.83;;;;;;;;;;5012579;28;20626;-74
2022/04/25 05:40:20;;;;;;;10.57;6.70;;;;;;;;;;5005980;28;20233;-74
2022/04/25 05:42:47;;;;;;;11.83;7.00;;;;;;;;;;4995273;28;20217;-75
2022/04/25 05:45:44;;;;;;;7.73;6.93;;;;;;;;;;4978681;28;20304;-76
2022/04/25 05:53:37;;;;;;;9.60;6.77;;;;;;;;;;5011500;28;20307;-75
2022/04/25 05:56:03;;;;;;;11.63;6.67;;;;;;;;;;5011881;28;20324;-75
2022/04/25 05:58:31;;;;;;;8.80;6.40;;;;;;;;;;4992584;28;20312;-74
2022/04/25 06:01:16;;;;;;;8.60;6.03;;;;;;;;;;4994075;28;20232;-75
2022/04/25 06:03:46;;;;;;;9.67;6.77;;;;;;;;;;4997682;28;20223;-74
2022/04/25 06:06:13;;;;;;;7.97;6.13;;;;;;;;;;4995510;28;20221;-75
2022/04/25 06:08:39;;;;;;;9.50;6.23;;;;;;;;;;4993301;28;20247;-75
2022/04/25 06:11:04;;;;;;;9.30;6.17;;;;;;;;;;4989419;28;20774;-74
2022/04/25 06:13:32;;;;;;;10.50;6.60;;;;;;;;;;4992504;28;20229;-74
2022/04/25 06:15:57;;;;;;;8.53;6.33;;;;;;;;;;4997187;28;20221;-74
2022/04/25 06:18:23;;;;;;;8.03;6.20;;;;;;;;;;5012126;28;20758;-75
2022/04/25 06:20:50;;;;;;;11.43;5.90;;;;;;;;;;4997889;28;20307;-76
2022/04/25 06:23:18;;;;;;;12.60;6.37;;;;;;;;;;5025817;28;20228;-75
2022/04/25 06:25:44;;;;;;;10.50;6.40;;;;;;;;;;5008205;28;20222;-74
2022/04/25 06:28:09;;;;;;;10.10;6.97;;;;;;;;;;5012346;28;20228;-75
2022/04/25 06:30:35;;;;;;;8.90;6.47;;;;;;;;;;4989207;28;20239;-76
2022/04/25 06:33:00;;;;;;;10.00;6.60;;;;;;;;;;4993666;28;20319;-76
2022/04/25 06:35:29;;;;;;;9.40;6.50;;;;;;;;;;5027645;28;20355;-75
2022/04/25 06:37:57;;;;;;;8.17;6.23;;;;;;;;;;4990976;28;20228;-75
2022/04/25 06:40:22;;;;;;;9.87;6.57;;;;;;;;;;4978533;28;20609;-75
2022/04/25 06:42:51;;;;;;;9.83;6.37;;;;;;;;;;4992643;28;20229;-74
2022/04/25 06:45:18;;;;;;;8.70;6.00;;;;;;;;;;4994877;28;20303;-75
2022/04/25 06:47:46;;;;;;;7.30;6.27;;;;;;;;;;5006957;28;20304;-75
2022/04/25 06:50:48;;;;;;;9.30;6.20;;;;;;;;;;5009060;28;20228;-74
2022/04/25 06:53:16;;;;;;;9.83;6.40;;;;;;;;;;4982899;28;20452;-76
2022/04/25 06:55:44;;;;;;;7.73;6.00;;;;;;;;;;5000420;28;20239;-74
2022/04/25 06:58:09;;;;;;;7.37;5.97;;;;;;;;;;5005423;28;20224;-75
2022/04/25 07:00:35;;;;;;;9.97;6.67;;;;;;;;;;4980292;28;20294;-75
2022/04/25 07:03:00;;;;;;;8.80;6.03;;;;;;;;;;5006377;28;20224;-75
2022/04/25 07:05:30;;;;;;;7.77;6.27;;;;;;;;;;5025285;28;20220;-75
2022/04/25 07:07:56;;;;;;;8.80;6.23;;;;;;;;;;4981138;28;20231;-76
2022/04/25 07:10:21;;;;;;;10.47;6.30;;;;;;;;;;4994055;28;20660;-75
2022/04/25 07:12:47;;;;;;;6.67;6.00;;;;;;;;;;4978112;28;20224;-76
2022/04/25 07:15:13;;;;;;;8.13;6.03;;;;;;;;;;4992125;28;20308;-76
2022/04/25 07:17:38;;;;;;;7.77;6.00;;;;;;;;;;5015421;28;20277;-75
2022/04/25 07:20:05;;;;;;;11.17;5.90;;;;;;;;;;4993296;28;20227;-75
2022/04/25 07:30:42;;;;;;;9.67;6.37;;;;;;;;;;5018128;28;20614;-75
2022/04/25 07:33:07;;;;;;;8.80;6.40;;;;;;;;;;5009044;28;20233;-74
2022/04/25 07:35:36;;;;;;;8.47;6.57;;;;;;;;;;5017826;28;20224;-75
2022/04/25 07:38:05;;;;;;;11.53;7.30;;;;;;;;;;5014627;28;20229;-75
2022/04/25 07:40:31;;;;;;;10.80;7.10;;;;;;;;;;4993773;28;20370;-76
2022/04/25 07:42:56;;;;;;;11.07;7.07;;;;;;;;;;4994319;28;20379;-75
2022/04/25 07:45:22;;;;;;;8.07;6.63;;;;;;;;;;4993175;28;20232;-75
2022/04/25 07:47:49;;;;;;;10.17;7.20;;;;;;;;;;5009022;28;20212;-75
2022/04/25 07:50:23;;;;;;;8.90;7.00;;;;;;;;;;4992971;28;20224;-76
2022/04/25 07:52:50;;;;;;;8.43;6.80;;;;;;;;;;5006647;28;20244;-76
2022/04/25 07:55:19;;;;;;;10.60;7.33;;;;;;;;;;4991824;28;20247;-78
2022/04/25 07:57:47;;;;;;;9.63;7.20;;;;;;;;;;4987173;28;20217;-78
2022/04/25 08:00:13;;;;;;;10.93;7.23;;;;;;;;;;4991992;28;20235;-76
2022/04/25 08:02:41;;;;;;;9.13;7.00;;;;;;;;;;4970907;28;20225;-77
2022/04/25 08:05:06;;;;;;;11.23;7.57;;;;;;;;;;4993498;28;20302;-76
2022/04/25 08:07:32;;;;;;;9.77;6.47;;;;;;;;;;4992534;28;20225;-77
2022/04/25 08:10:01;;;;;;;9.43;6.23;;;;;;;;;;5009799;28;20600;-77
2022/04/25 08:17:59;;;;;;;12.20;7.23;;;;;;;;;;4998506;28;20254;-76
2022/04/25 08:20:30;;;;;;;9.30;7.17;;;;;;;;;;5010502;28;20736;-76
2022/04/25 08:23:01;;;;;;;8.40;7.37;;;;;;;;;;5017915;28;20221;-74
2022/04/25 08:25:30;;;;;;;10.57;7.03;;;;;;;;;;5012958;28;20800;-73
2022/04/25 08:27:57;;;;;;;8.93;6.77;;;;;;;;;;5008318;28;20232;-74
2022/04/25 08:30:23;;;;;;;9.00;7.40;;;;;;;;;;4997130;28;20227;-73
2022/04/25 08:32:48;;;;;;;8.33;6.90;;;;;;;;;;4995517;28;20221;-76
2022/04/25 08:35:14;;;;;;;8.53;6.90;;;;;;;;;;5014779;28;20224;-76
2022/04/25 08:37:41;;;;;;;10.20;6.90;;;;;;;;;;4996404;28;20228;-77
2022/04/25 08:40:07;;;;;;;8.10;5.77;;;;;;;;;;4998304;28;20229;-76
2022/04/25 08:42:32;;;;;;;6.97;6.27;;;;;;;;;;5001168;28;20597;-77
2022/04/25 08:44:58;;;;;;;8.37;6.20;;;;;;;;;;5000083;28;20251;-77
2022/04/25 08:47:29;;;;;;;9.87;6.30;;;;;;;;;;5017910;28;20239;-78
2022/04/25 08:49:57;;;;;;;11.03;6.87;;;;;;;;;;5015313;28;20308;-79
2022/04/25 08:52:23;;;;;;;8.07;5.63;;;;;;;;;;5001293;28;20275;-78
2022/04/25 08:54:48;;;;;;;9.80;6.17;;;;;;;;;;5032639;28;20221;-77
2022/04/25 08:57:17;;;;;;;7.47;5.87;;;;;;;;;;5016518;28;20279;-77
2022/04/25 08:59:45;;;;;;;8.27;6.20;;;;;;;;;;5019366;28;20237;-78
2022/04/25 09:02:11;;;;;;;7.37;5.40;;;;;;;;;;5002733;28;20233;-77
2022/04/25 09:04:37;;;;;;;7.80;5.50;;;;;;;;;;4992461;28;20229;-76
2022/04/25 09:07:07;;;;;;;9.03;5.77;;;;;;;;;;5020161;28;20221;-78
2022/04/25 09:09:35;;;;;;;8.57;5.00;;;;;;;;;;5018862;28;20231;-78
2022/04/25 09:12:10;;;;;;;7.33;5.40;;;;;;;;;;5000248;28;20629;-77
2022/04/25 09:14:40;;;;;;;7.90;5.63;;;;;;;;;;5112956;22;20231;-78
2022/04/25 09:17:07;;;;;;;8.83;4.97;;;;;;;;;;5002967;28;20220;-78
2022/04/25 09:22:15;;;;;;;6.77;4.87;;;;;;;;;;4996572;23;20239;-83
2022/04/25 09:24:50;;;;;;;5.80;4.70;;;;;;;;;;4983175;28;20229;-83
2022/04/25 09:27:19;;;;;;;4.77;4.33;;;;;;;;;;4983455;28;20221;-84
2022/04/25 09:29:49;;;;;;;6.67;4.57;;;;;;;;;;4960556;28;20247;-85
2022/04/25 09:32:25;;;;;;;6.60;4.73;;;;;;;;;;4949581;28;20295;-84
2022/04/25 09:34:59;;;;;;;6.13;4.80;;;;;;;;;;4978461;28;20235;-85
2022/04/25 09:37:40;;;;;;;7.43;4.53;;;;;;;;;;4957753;28;20228;-84
2022/04/25 09:43:57;;;;;;;8.33;5.40;;;;;;;;;;5020809;28;20256;-84
2022/04/25 09:46:25;;;;;;;7.70;5.50;;;;;;;;;;4973351;28;20335;-84
2022/04/25 09:49:21;;;;;;;5.70;5.10;;;;;;;;;;4968715;28;21323;-83
2022/04/25 09:54:53;;;;;;;6.37;5.50;;;;;;;;;;4953775;28;20763;-76
2022/04/25 09:57:51;;;;;;;8.20;4.90;;;;;;;;;;4942797;28;20226;-77
2022/04/25 10:00:39;;;;;;;6.53;4.73;;;;;;;;;;4931990;28;20237;-77
2022/04/25 10:03:05;;;;;;;5.77;4.60;;;;;;;;;;4939910;28;20644;-77
2022/04/25 10:05:49;;;;;;;6.23;4.93;;;;;;;;;;4932625;28;20227;-76
2022/04/25 10:08:16;;;;;;;7.10;4.70;;;;;;;;;;4949855;28;20238;-77
2022/04/25 10:10:57;;;;;;;5.50;4.67;;;;;;;;;;4975486;23;20214;-84
2022/04/25 10:17:20;;;;;;;7.47;4.57;;;;;;;;;;4972150;28;20221;-87
2022/04/25 10:19:48;;;;;;;6.77;4.73;;;;;;;;;;4962921;28;20297;-86
2022/04/25 10:22:14;;;;;;;6.83;5.23;;;;;;;;;;4972708;28;20310;-87
2022/04/25 10:24:58;;;;;;;6.27;4.90;;;;;;;;;;4962432;28;20240;-86
2022/04/25 10:28:05;;;;;;;5.20;4.27;;;;;;;;;;4952538;28;20261;-86
2022/04/25 10:30:40;;;;;;;7.73;5.00;;;;;;;;;;4969327;28;20766;-86
2022/04/25 10:33:19;;;;;;;6.07;4.40;;;;;;;;;;4965165;28;20233;-86
2022/04/25 10:35:45;;;;;;;6.77;4.50;;;;;;;;;;4982832;23;20260;-77
2022/04/25 10:38:52;;;;;;;4.50;3.80;;;;;;;;;;4961415;28;20213;-77
2022/04/25 10:44:10;;;;;;;4.47;4.00;;;;;;;;;;4980137;28;20314;-78
2022/04/25 10:47:09;;;;;;;6.10;3.73;;;;;;;;;;4966940;28;20287;-78
2022/04/25 10:50:17;;;;;;;4.63;3.63;;;;;;;;;;4987060;28;20320;-77
2022/04/25 10:52:43;;;;;;;4.63;3.30;;;;;;;;;;4986928;28;20229;-75
2022/04/25 10:55:19;;;;;;;5.43;3.70;;;;;;;;;;4993327;28;20237;-78
2022/04/25 10:58:04;;;;;;;4.63;3.67;;;;;;;;;;4986763;28;20229;-77
2022/04/25 11:00:41;;;;;;;4.17;3.30;;;;;;;;;;4961247;28;20627;-75
2022/04/25 11:03:09;;;;;;;5.07;3.13;;;;;;;;;;4967127;28;20231;-77
2022/04/25 11:05:35;;;;;;;5.13;3.20;;;;;;;;;;4991089;28;20321;-77
2022/04/25 11:08:19;;;;;;;3.60;3.10;;;;;;;;;;4966919;28;20229;-76
2022/04/25 11:10:48;;;;;;;5.07;2.97;;;;;;;;;;4972479;28;20269;-75
2022/04/25 11:13:15;;;;;;;3.30;3.00;;;;;;;;;;4981488;28;20283;-77
2022/04/25 11:15:48;;;;;;;3.67;2.90;;;;;;;;;;4984595;28;20229;-77
2022/04/25 11:18:34;;;;;;;3.47;3.13;;;;;;;;;;4959751;28;20221;-78
2022/04/25 11:21:16;;;;;;;4.57;2.80;;;;;;;;;;4967771;28;20237;-77
2022/04/25 11:23:44;;;;;;;4.22;2.60;;;;;;;;;;4987210;28;20276;-77
2022/04/25 11:26:28;;;;;;;3.35;2.90;;;;;;;;;;4979001;28;20257;-78
2022/04/25 11:28:54;;;;;;;3.28;2.78;;;;;;;;;;4997001;28;20358;-80
2022/04/25 11:31:23;;;;;;;3.65;2.70;;;;;;;;;;4985936;28;20238;-80
2022/04/25 11:34:04;;;;;;;4.47;3.00;;;;;;;;;;4982132;28;20242;-79
2022/04/25 11:36:33;;;;;;;3.30;2.60;;;;;;;;;;4963472;28;20676;-80
2022/04/25 11:41:44;;;;;;;2.97;2.53;;;;;;;;;;4990471;28;20230;-80
2022/04/25 11:44:09;;;;;;;4.22;2.70;;;;;;;;;;4969122;28;20221;-79
2022/04/25 11:46:43;;;;;;;3.25;2.60;;;;;;;;;;4984491;28;20237;-78
2022/04/25 11:49:27;;;;;;;3.53;2.80;;;;;;;;;;4948956;28;20229;-78
2022/04/25 11:51:58;;;;;;;3.53;2.70;;;;;;;;;;4963072;28;20692;-77
2022/04/25 11:54:24;;;;;;;3.35;2.60;;;;;;;;;;4972418;28;20218;-78
2022/04/25 11:56:49;;;;;;;3.63;2.35;;;;;;;;;;4961796;28;20697;-78
2022/04/25 11:59:40;;;;;;;2.40;1.90;;;;;;;;;;4959071;28;20236;-78
2022/04/25 12:02:05;;;;;;;2.60;1.88;;;;;;;;;;4956272;28;20233;-78
2022/04/25 12:04:41;;;;;;;2.00;1.85;;;;;;;;;;4987543;28;20251;-79
2022/04/25 12:07:11;;;;;;;2.25;1.90;;;;;;;;;;4988271;23;20236;-85
2022/04/25 12:15:34;;;;;;;2.85;2.08;;;;;;;;;;4963220;28;20225;-88
2022/04/25 12:18:21;;;;;;;6.50;2.53;;;;;;;;;;4975915;28;20233;-86
2022/04/25 12:21:06;;;;;;;2.95;2.20;;;;;;;;;;4984466;28;20297;-87
2022/04/25 12:23:39;;;;;;;4.88;2.22;;;;;;;;;;4964290;28;20233;-86
2022/04/25 12:26:18;;;;;;;3.85;2.03;;;;;;;;;;4966330;28;20214;-86
2022/04/25 12:28:59;;;;;;;3.38;2.20;;;;;;;;;;4977498;28;20233;-84
2022/04/25 12:31:41;;;;;;;4.32;1.88;;;;;;;;;;4972928;28;20226;-84
2022/04/25 12:34:07;;;;;;;2.83;1.77;;;;;;;;;;4949155;28;20733;-84
2022/04/25 12:36:36;;;;;;;4.03;2.03;;;;;;;;;;4956528;28;20289;-85
2022/04/25 12:39:14;;;;;;;2.30;2.10;;;;;;;;;;4944492;28;20229;-83
2022/04/25 12:41:51;;;;;;;2.50;2.00;;;;;;;;;;4970440;28;20222;-86
2022/04/25 12:54:43;;;;;;;3.35;2.22;;;;;;;;;;5114626;27;20557;-77
2022/04/25 12:57:16;;;;;;;2.38;1.75;;;;;;;;;;5095898;28;20453;-77
2022/04/25 13:00:00;;;;;;;3.20;1.58;;;;;;;;;;5086522;28;20254;-77
2022/04/25 13:02:35;;;;;;;2.60;1.98;;;;;;;;;;5084348;28;20242;-78
2022/04/25 13:05:11;;;;;;;2.47;2.00;;;;;;;;;;5078282;28;20222;-78
2022/04/25 13:07:44;;;;;;;2.25;1.85;;;;;;;;;;5084131;28;20226;-77
2022/04/25 13:10:18;;;;;;;3.13;1.80;;;;;;;;;;5093285;28;20230;-76
2022/04/25 13:12:44;;;;;;;3.65;1.95;;;;;;;;;;5100011;28;20247;-75
2022/04/25 13:15:20;;;;;;;2.20;1.90;;;;;;;;;;5094192;28;20227;-76
2022/04/25 13:17:46;;;;;;;2.40;1.80;;;;;;;;;;5077633;28;20233;-76
2022/04/25 13:20:13;;;;;;;5.35;2.05;;;;;;;;;;5053584;28;20222;-76
2022/04/25 13:22:39;;;;;;;2.90;1.98;;;;;;;;;;5094621;28;20581;-76
2022/04/25 13:25:06;;;;;;;3.15;1.90;;;;;;;;;;5075133;28;20289;-76
2022/04/25 13:27:32;;;;;;;2.90;1.92;;;;;;;;;;5060237;28;20222;-79
2022/04/25 13:29:57;;;;;;;1.83;1.70;;;;;;;;;;5064778;28;20279;-75
2022/04/25 13:32:23;;;;;;;3.40;1.85;;;;;;;;;;5087496;28;20687;-76
2022/04/25 13:34:48;;;;;;;2.90;2.00;;;;;;;;;;5092651;28;20218;-76
2022/04/25 13:37:16;;;;;;;2.63;1.73;;;;;;;;;;5111150;28;20225;-76
2022/04/25 13:39:41;;;;;;;2.53;1.90;;;;;;;;;;5081410;28;20250;-76
2022/04/25 13:42:08;;;;;;;2.78;2.00;;;;;;;;;;5090570;28;20729;-76
2022/04/25 13:44:34;;;;;;;2.15;1.77;;;;;;;;;;5103985;28;20229;-74
2022/04/25 13:47:00;;;;;;;2.22;2.00;;;;;;;;;;5080663;28;20226;-75
2022/04/25 13:49:25;;;;;;;1.88;1.67;;;;;;;;;;5072294;28;20218;-76
2022/04/25 13:51:51;;;;;;;2.72;1.85;;;;;;;;;;5088338;28;20364;-75
2022/04/25 13:54:19;;;;;;;2.70;2.00;;;;;;;;;;5086583;28;20417;-76
2022/04/25 13:56:47;;;;;;;1.98;1.65;;;;;;;;;;5076460;28;20221;-74
2022/04/25 13:59:13;;;;;;;2.40;1.80;;;;;;;;;;5095288;28;20241;-75
2022/04/25 14:01:40;;;;;;;2.50;1.60;;;;;;;;;;5094362;28;20226;-77
2022/04/25 14:04:06;;;;;;;3.92;1.80;;;;;;;;;;5077891;28;20726;-75
2022/04/25 14:06:31;;;;;;;1.75;1.58;;;;;;;;;;5058150;28;20218;-77
2022/04/25 14:09:02;;;;;;;2.10;1.70;;;;;;;;;;5051848;28;20317;-77
2022/04/25 14:11:31;;;;;;;1.77;1.67;;;;;;;;;;5064255;28;20219;-76
2022/04/25 14:13:59;;;;;;;4.45;1.75;;;;;;;;;;5075251;28;20222;-74
2022/04/25 14:16:25;;;;;;;2.22;1.90;;;;;;;;;;5083295;28;20305;-76
2022/04/25 14:18:50;;;;;;;3.00;1.60;;;;;;;;;;5083017;28;20302;-76
2022/04/25 14:21:21;;;;;;;2.20;1.80;;;;;;;;;;5065466;28;20243;-74
2022/04/25 14:23:46;;;;;;;2.55;1.80;;;;;;;;;;5062728;28;20620;-75
2022/04/25 14:26:13;;;;;;;2.47;1.70;;;;;;;;;;5072752;28;20234;-74
2022/04/25 14:28:39;;;;;;;2.20;1.65;;;;;;;;;;5064381;28;20214;-77
2022/04/25 14:31:04;;;;;;;3.03;1.90;;;;;;;;;;5057360;28;20248;-75
2022/04/25 14:33:33;;;;;;;2.40;1.73;;;;;;;;;;5062471;28;20573;-76
2022/04/25 14:35:58;;;;;;;2.85;1.60;;;;;;;;;;5074223;28;20821;-75
2022/04/25 14:38:24;;;;;;;2.05;1.75;;;;;;;;;;5062915;28;20219;-74
2022/04/25 14:40:54;;;;;;;2.08;1.70;;;;;;;;;;5084100;28;20224;-74
2022/04/25 14:43:21;;;;;;;3.30;1.70;;;;;;;;;;5081788;22;20227;-86
2022/04/25 14:45:49;;;;;;;2.20;2.00;;;;;;;;;;5025449;28;20302;-86
2022/04/25 14:48:19;;;;;;;3.35;1.98;;;;;;;;;;5047283;28;20575;-85
2022/04/25 14:56:13;;;;;;;2.45;1.70;;;;;;;;;;5038776;28;20254;-86
2022/04/25 14:58:43;;;;;;;2.88;1.77;;;;;;;;;;5052310;28;20226;-84
2022/04/25 15:01:11;;;;;;;2.95;1.73;;;;;;;;;;5066351;28;20232;-79
2022/04/25 15:03:37;;;;;;;2.67;2.00;;;;;;;;;;5023982;28;20692;-82
2022/04/25 15:06:09;;;;;;;3.22;2.17;;;;;;;;;;5055870;28;20883;-85
2022/04/25 15:08:34;;;;;;;4.50;2.20;;;;;;;;;;5045161;28;20470;-84
2022/04/25 15:11:03;;;;;;;2.33;1.92;;;;;;;;;;5047800;28;20489;-84
2022/04/25 15:13:32;;;;;;;2.70;2.10;;;;;;;;;;5045997;28;20242;-86
2022/04/25 15:16:03;;;;;;;2.33;2.00;;;;;;;;;;5065052;28;20675;-84
2022/04/25 15:18:30;;;;;;;2.70;1.90;;;;;;;;;;5028968;28;20214;-82
2022/04/25 15:20:58;;;;;;;2.85;2.00;;;;;;;;;;5037371;28;20230;-84
2022/04/25 15:23:27;;;;;;;2.10;1.90;;;;;;;;;;5028768;28;20203;-87
2022/04/25 15:25:53;;;;;;;2.58;1.85;;;;;;;;;;5039420;28;20222;-85
2022/04/25 15:28:21;;;;;;;3.45;2.13;;;;;;;;;;5055300;28;20219;-87
2022/04/25 15:30:47;;;;;;;3.05;2.13;;;;;;;;;;5036972;28;20238;-86
2022/04/25 15:33:14;;;;;;;3.72;2.20;;;;;;;;;;5032740;28;20223;-85
2022/04/25 15:35:42;;;;;;;4.63;1.70;;;;;;;;;;5037315;28;20325;-85
2022/04/25 15:38:11;;;;;;;2.75;2.00;;;;;;;;;;5040444;28;20226;-85
2022/04/25 15:40:40;;;;;;;2.60;1.67;;;;;;;;;;5035223;28;20277;-85
2022/04/25 15:43:05;;;;;;;3.03;2.00;;;;;;;;;;5025479;28;20211;-87
2022/04/25 15:45:36;;;;;;;2.53;1.65;;;;;;;;;;5041250;28;20215;-87
2022/04/25 15:48:03;;;;;;;2.53;2.10;;;;;;;;;;5060466;28;20210;-86
2022/04/25 15:50:34;;;;;;;2.88;2.22;;;;;;;;;;5015318;28;20227;-86
2022/04/25 15:53:01;;;;;;;2.60;2.35;;;;;;;;;;5034966;28;20199;-88
2022/04/25 15:58:14;;;;;;;2.60;2.15;;;;;;;;;;5040957;28;20242;-86
2022/04/25 16:00:41;;;;;;;2.70;1.80;;;;;;;;;;5031970;28;20250;-88
2022/04/25 16:03:09;;;;;;;3.30;2.10;;;;;;;;;;5031626;28;20419;-87